sensor_id;sensor_type;location;lat;lon;timestamp;temperature;humidity
4647;DHT22;2336;47.822;7.564;2022-07-10T00:00:09;18.20;99.90
4647;DHT22;2336;47.822;7.564;2022-07-10T00:02:38;18.20;99.90
4647;DHT22;2336;47.822;7.564;2022-07-10T00:05:05;18.20;99.90
4647;DHT22;2336;47.822;7.564;2022-07-10T00:07:32;18.20;99.90
4647;DHT22;2336;47.822;7.564;2022-07-10T00:09:59;18.20;99.90
4647;DHT22;2336;47.822;7.564;2022-07-10T00:12:26;18.10;99.90
4647;DHT22;2336;47.822;7.564;2022-07-10T00:14:53;18.10;99.90
4647;DHT22;2336;47.822;7.564;2022-07-10T00:17:19;18.10;99.90
4647;DHT22;2336;47.822;7.564;2022-07-10T00:19:48;18.00;99.90
4647;DHT22;2336;47.822;7.564;2022-07-10T00:22:14;18.00;99.90
4647;DHT22;2336;47.822;7.564;2022-07-10T00:24:41;18.00;99.90
4647;DHT22;2336;47.822;7.564;2022-07-10T00:27:08;17.90;99.90
4647;DHT22;2336;47.822;7.564;2022-07-10T00:29:35;17.90;99.90
4647;DHT22;2336;47.822;7.564;2022-07-10T00:32:02;17.90;99.90
4647;DHT22;2336;47.822;7.564;2022-07-10T00:34:29;17.90;99.90
4647;DHT22;2336;47.822;7.564;2022-07-10T00:36:57;17.80;99.90
4647;DHT22;2336;47.822;7.564;2022-07-10T00:39:24;17.70;99.90
4647;DHT22;2336;47.822;7.564;2022-07-10T00:41:51;17.60;99.90
4647;DHT22;2336;47.822;7.564;2022-07-10T00:44:18;17.60;99.90
4647;DHT22;2336;47.822;7.564;2022-07-10T00:46:46;17.50;99.90
4647;DHT22;2336;47.822;7.564;2022-07-10T00:49:13;17.50;99.90
4647;DHT22;2336;47.822;7.564;2022-07-10T00:51:40;17.50;99.90
4647;DHT22;2336;47.822;7.564;2022-07-10T00:54:08;17.40;99.90
4647;DHT22;2336;47.822;7.564;2022-07-10T00:56:36;17.50;99.90
4647;DHT22;2336;47.822;7.564;2022-07-10T00:59:03;17.50;99.90
4647;DHT22;2336;47.822;7.564;2022-07-10T01:01:30;17.50;99.90
4647;DHT22;2336;47.822;7.564;2022-07-10T01:03:58;17.50;99.90
4647;DHT22;2336;47.822;7.564;2022-07-10T01:06:25;17.50;99.90
4647;DHT22;2336;47.822;7.564;2022-07-10T01:08:52;17.40;99.90
4647;DHT22;2336;47.822;7.564;2022-07-10T01:11:21;17.50;99.90
4647;DHT22;2336;47.822;7.564;2022-07-10T01:13:48;17.50;99.90
4647;DHT22;2336;47.822;7.564;2022-07-10T01:16:15;17.50;99.90
4647;DHT22;2336;47.822;7.564;2022-07-10T01:18:42;17.50;99.90
4647;DHT22;2336;47.822;7.564;2022-07-10T01:21:24;17.50;99.90
4647;DHT22;2336;47.822;7.564;2022-07-10T01:23:51;17.60;99.90
4647;DHT22;2336;47.822;7.564;2022-07-10T01:26:18;17.60;99.90
4647;DHT22;2336;47.822;7.564;2022-07-10T01:28:48;17.50;99.90
4647;DHT22;2336;47.822;7.564;2022-07-10T01:31:15;17.40;99.90
4647;DHT22;2336;47.822;7.564;2022-07-10T01:33:43;17.30;99.90
4647;DHT22;2336;47.822;7.564;2022-07-10T01:36:10;17.30;99.90
4647;DHT22;2336;47.822;7.564;2022-07-10T01:38:39;17.20;99.90
4647;DHT22;2336;47.822;7.564;2022-07-10T01:41:05;17.20;99.90
4647;DHT22;2336;47.822;7.564;2022-07-10T01:43:33;17.20;99.90
4647;DHT22;2336;47.822;7.564;2022-07-10T01:46:00;17.10;99.90
4647;DHT22;2336;47.822;7.564;2022-07-10T01:48:27;17.10;99.90
4647;DHT22;2336;47.822;7.564;2022-07-10T01:50:54;17.00;99.90
4647;DHT22;2336;47.822;7.564;2022-07-10T01:53:21;17.10;99.90
4647;DHT22;2336;47.822;7.564;2022-07-10T01:55:49;17.00;99.90
4647;DHT22;2336;47.822;7.564;2022-07-10T01:58:16;17.10;99.90
4647;DHT22;2336;47.822;7.564;2022-07-10T02:00:43;17.10;99.90
4647;DHT22;2336;47.822;7.564;2022-07-10T02:03:10;17.10;99.90
4647;DHT22;2336;47.822;7.564;2022-07-10T02:05:54;17.10;99.90
4647;DHT22;2336;47.822;7.564;2022-07-10T02:08:21;17.10;99.90
4647;DHT22;2336;47.822;7.564;2022-07-10T02:10:49;17.10;99.90
4647;DHT22;2336;47.822;7.564;2022-07-10T02:13:16;17.10;99.90
4647;DHT22;2336;47.822;7.564;2022-07-10T02:15:45;17.00;99.90
4647;DHT22;2336;47.822;7.564;2022-07-10T02:18:12;17.00;99.90
4647;DHT22;2336;47.822;7.564;2022-07-10T02:20:39;17.00;99.90
4647;DHT22;2336;47.822;7.564;2022-07-10T02:23:07;17.00;99.90
4647;DHT22;2336;47.822;7.564;2022-07-10T02:25:33;16.90;99.90
4647;DHT22;2336;47.822;7.564;2022-07-10T02:28:01;16.90;99.90
4647;DHT22;2336;47.822;7.564;2022-07-10T02:30:28;16.80;99.90
4647;DHT22;2336;47.822;7.564;2022-07-10T02:32:55;16.80;99.90
4647;DHT22;2336;47.822;7.564;2022-07-10T02:35:22;16.70;99.90
4647;DHT22;2336;47.822;7.564;2022-07-10T02:37:49;16.70;99.90
4647;DHT22;2336;47.822;7.564;2022-07-10T02:40:15;16.70;99.90
4647;DHT22;2336;47.822;7.564;2022-07-10T02:42:42;16.60;99.90
4647;DHT22;2336;47.822;7.564;2022-07-10T02:45:10;16.60;99.90
4647;DHT22;2336;47.822;7.564;2022-07-10T02:47:37;16.60;99.90
4647;DHT22;2336;47.822;7.564;2022-07-10T02:50:04;16.60;99.90
4647;DHT22;2336;47.822;7.564;2022-07-10T02:52:31;16.60;99.90
4647;DHT22;2336;47.822;7.564;2022-07-10T02:54:58;16.50;99.90
4647;DHT22;2336;47.822;7.564;2022-07-10T02:57:25;16.50;99.90
4647;DHT22;2336;47.822;7.564;2022-07-10T02:59:51;16.50;99.90
4647;DHT22;2336;47.822;7.564;2022-07-10T03:02:19;16.50;99.90
4647;DHT22;2336;47.822;7.564;2022-07-10T03:04:46;16.50;99.90
4647;DHT22;2336;47.822;7.564;2022-07-10T03:07:13;16.50;99.90
4647;DHT22;2336;47.822;7.564;2022-07-10T03:09:39;16.50;99.90
4647;DHT22;2336;47.822;7.564;2022-07-10T03:12:07;16.40;99.90
4647;DHT22;2336;47.822;7.564;2022-07-10T03:14:33;16.40;99.90
4647;DHT22;2336;47.822;7.564;2022-07-10T03:17:00;16.30;99.90
4647;DHT22;2336;47.822;7.564;2022-07-10T03:19:28;16.20;99.90
4647;DHT22;2336;47.822;7.564;2022-07-10T03:21:55;16.20;99.90
4647;DHT22;2336;47.822;7.564;2022-07-10T03:24:22;16.20;99.90
4647;DHT22;2336;47.822;7.564;2022-07-10T03:26:48;16.20;99.90
4647;DHT22;2336;47.822;7.564;2022-07-10T03:29:15;16.20;99.90
4647;DHT22;2336;47.822;7.564;2022-07-10T03:31:42;16.20;99.90
4647;DHT22;2336;47.822;7.564;2022-07-10T03:34:09;16.10;99.90
4647;DHT22;2336;47.822;7.564;2022-07-10T03:36:37;16.10;99.90
4647;DHT22;2336;47.822;7.564;2022-07-10T03:39:05;16.10;99.90
4647;DHT22;2336;47.822;7.564;2022-07-10T03:41:32;16.00;99.90
4647;DHT22;2336;47.822;7.564;2022-07-10T03:43:59;16.00;99.90
4647;DHT22;2336;47.822;7.564;2022-07-10T03:46:26;16.00;99.90
4647;DHT22;2336;47.822;7.564;2022-07-10T03:48:52;15.90;99.90
4647;DHT22;2336;47.822;7.564;2022-07-10T03:51:19;15.90;99.90
4647;DHT22;2336;47.822;7.564;2022-07-10T03:53:47;15.90;99.90
4647;DHT22;2336;47.822;7.564;2022-07-10T03:56:14;15.90;99.90
4647;DHT22;2336;47.822;7.564;2022-07-10T03:58:55;15.90;99.90
4647;DHT22;2336;47.822;7.564;2022-07-10T04:01:22;15.90;99.90
4647;DHT22;2336;47.822;7.564;2022-07-10T04:03:48;15.90;99.90
4647;DHT22;2336;47.822;7.564;2022-07-10T04:06:15;15.90;99.90
4647;DHT22;2336;47.822;7.564;2022-07-10T04:08:42;15.90;99.90
4647;DHT22;2336;47.822;7.564;2022-07-10T04:11:10;16.00;99.90
4647;DHT22;2336;47.822;7.564;2022-07-10T04:13:37;16.00;99.90
4647;DHT22;2336;47.822;7.564;2022-07-10T04:16:04;16.00;99.90
4647;DHT22;2336;47.822;7.564;2022-07-10T04:18:31;16.00;99.90
4647;DHT22;2336;47.822;7.564;2022-07-10T04:20:57;16.10;99.90
4647;DHT22;2336;47.822;7.564;2022-07-10T04:23:24;16.00;99.90
4647;DHT22;2336;47.822;7.564;2022-07-10T04:25:51;16.00;99.90
4647;DHT22;2336;47.822;7.564;2022-07-10T04:28:19;16.00;99.90
4647;DHT22;2336;47.822;7.564;2022-07-10T04:30:46;16.00;99.90
4647;DHT22;2336;47.822;7.564;2022-07-10T04:33:12;16.00;99.90
4647;DHT22;2336;47.822;7.564;2022-07-10T04:35:39;16.00;99.90
4647;DHT22;2336;47.822;7.564;2022-07-10T04:38:06;16.00;99.90
4647;DHT22;2336;47.822;7.564;2022-07-10T04:40:33;16.00;99.90
4647;DHT22;2336;47.822;7.564;2022-07-10T04:42:59;16.10;99.90
4647;DHT22;2336;47.822;7.564;2022-07-10T04:45:28;16.10;99.90
4647;DHT22;2336;47.822;7.564;2022-07-10T04:47:54;16.20;99.90
4647;DHT22;2336;47.822;7.564;2022-07-10T04:50:21;16.20;99.90
4647;DHT22;2336;47.822;7.564;2022-07-10T04:52:48;16.20;99.90
4647;DHT22;2336;47.822;7.564;2022-07-10T04:55:15;16.20;99.90
4647;DHT22;2336;47.822;7.564;2022-07-10T04:57:42;16.30;99.90
4647;DHT22;2336;47.822;7.564;2022-07-10T05:00:10;16.30;99.90
4647;DHT22;2336;47.822;7.564;2022-07-10T05:02:39;16.40;99.90
4647;DHT22;2336;47.822;7.564;2022-07-10T05:05:06;16.40;99.90
4647;DHT22;2336;47.822;7.564;2022-07-10T05:07:33;16.40;99.90
4647;DHT22;2336;47.822;7.564;2022-07-10T05:10:00;16.40;99.90
4647;DHT22;2336;47.822;7.564;2022-07-10T05:12:26;16.40;99.90
4647;DHT22;2336;47.822;7.564;2022-07-10T05:14:53;16.50;99.90
4647;DHT22;2336;47.822;7.564;2022-07-10T05:17:20;16.40;99.90
4647;DHT22;2336;47.822;7.564;2022-07-10T05:19:48;16.60;99.90
4647;DHT22;2336;47.822;7.564;2022-07-10T05:22:17;16.60;99.90
4647;DHT22;2336;47.822;7.564;2022-07-10T05:24:43;16.70;99.90
4647;DHT22;2336;47.822;7.564;2022-07-10T05:27:10;16.70;99.90
4647;DHT22;2336;47.822;7.564;2022-07-10T05:29:37;16.80;99.90
4647;DHT22;2336;47.822;7.564;2022-07-10T05:32:04;16.80;99.90
4647;DHT22;2336;47.822;7.564;2022-07-10T05:34:31;16.90;99.90
4647;DHT22;2336;47.822;7.564;2022-07-10T05:36:59;17.10;99.90
4647;DHT22;2336;47.822;7.564;2022-07-10T05:39:25;17.20;99.90
4647;DHT22;2336;47.822;7.564;2022-07-10T05:41:52;17.40;99.90
4647;DHT22;2336;47.822;7.564;2022-07-10T05:44:19;17.50;99.90
4647;DHT22;2336;47.822;7.564;2022-07-10T05:46:46;17.60;99.90
4647;DHT22;2336;47.822;7.564;2022-07-10T05:49:13;17.70;99.90
4647;DHT22;2336;47.822;7.564;2022-07-10T05:51:39;17.70;99.90
4647;DHT22;2336;47.822;7.564;2022-07-10T05:54:08;17.70;99.90
4647;DHT22;2336;47.822;7.564;2022-07-10T05:56:35;17.80;99.90
4647;DHT22;2336;47.822;7.564;2022-07-10T05:59:01;17.90;99.90
4647;DHT22;2336;47.822;7.564;2022-07-10T06:01:28;18.00;99.90
4647;DHT22;2336;47.822;7.564;2022-07-10T06:03:55;18.20;99.90
4647;DHT22;2336;47.822;7.564;2022-07-10T06:06:22;18.30;99.90
4647;DHT22;2336;47.822;7.564;2022-07-10T06:08:48;18.40;99.90
4647;DHT22;2336;47.822;7.564;2022-07-10T06:11:16;18.40;99.90
4647;DHT22;2336;47.822;7.564;2022-07-10T06:13:43;18.40;99.90
4647;DHT22;2336;47.822;7.564;2022-07-10T06:16:10;18.30;99.90
4647;DHT22;2336;47.822;7.564;2022-07-10T06:18:36;18.40;99.90
4647;DHT22;2336;47.822;7.564;2022-07-10T06:21:04;18.50;99.90
4647;DHT22;2336;47.822;7.564;2022-07-10T06:23:30;18.60;99.90
4647;DHT22;2336;47.822;7.564;2022-07-10T06:25:57;18.70;99.90
4647;DHT22;2336;47.822;7.564;2022-07-10T06:28:25;18.60;99.90
4647;DHT22;2336;47.822;7.564;2022-07-10T06:30:52;18.60;99.90
4647;DHT22;2336;47.822;7.564;2022-07-10T06:33:19;18.70;99.90
4647;DHT22;2336;47.822;7.564;2022-07-10T06:35:45;18.70;99.90
4647;DHT22;2336;47.822;7.564;2022-07-10T06:38:12;18.70;99.90
4647;DHT22;2336;47.822;7.564;2022-07-10T06:40:39;18.60;99.90
4647;DHT22;2336;47.822;7.564;2022-07-10T06:43:07;18.50;99.90
4647;DHT22;2336;47.822;7.564;2022-07-10T06:45:35;18.50;99.90
4647;DHT22;2336;47.822;7.564;2022-07-10T06:48:02;18.60;99.90
4647;DHT22;2336;47.822;7.564;2022-07-10T06:50:29;18.60;99.90
4647;DHT22;2336;47.822;7.564;2022-07-10T06:52:57;18.60;99.90
4647;DHT22;2336;47.822;7.564;2022-07-10T06:55:24;18.60;99.90
4647;DHT22;2336;47.822;7.564;2022-07-10T06:57:51;18.60;99.90
4647;DHT22;2336;47.822;7.564;2022-07-10T07:00:18;18.70;99.90
4647;DHT22;2336;47.822;7.564;2022-07-10T07:02:46;18.70;99.90
4647;DHT22;2336;47.822;7.564;2022-07-10T07:05:13;18.70;99.90
4647;DHT22;2336;47.822;7.564;2022-07-10T07:07:40;18.80;99.90
4647;DHT22;2336;47.822;7.564;2022-07-10T07:10:08;18.80;99.90
4647;DHT22;2336;47.822;7.564;2022-07-10T07:12:35;18.90;99.90
4647;DHT22;2336;47.822;7.564;2022-07-10T07:15:02;19.00;99.90
4647;DHT22;2336;47.822;7.564;2022-07-10T07:17:29;18.90;99.90
4647;DHT22;2336;47.822;7.564;2022-07-10T07:20:03;18.90;99.90
4647;DHT22;2336;47.822;7.564;2022-07-10T07:22:47;19.00;99.90
4647;DHT22;2336;47.822;7.564;2022-07-10T07:25:31;18.80;99.90
4647;DHT22;2336;47.822;7.564;2022-07-10T07:27:58;18.90;99.90
4647;DHT22;2336;47.822;7.564;2022-07-10T07:30:25;18.90;99.90
4647;DHT22;2336;47.822;7.564;2022-07-10T07:32:52;18.70;99.90
4647;DHT22;2336;47.822;7.564;2022-07-10T07:35:20;18.70;99.90
4647;DHT22;2336;47.822;7.564;2022-07-10T07:37:47;18.60;99.90
4647;DHT22;2336;47.822;7.564;2022-07-10T07:40:16;18.60;99.90
4647;DHT22;2336;47.822;7.564;2022-07-10T07:42:45;18.80;99.90
4647;DHT22;2336;47.822;7.564;2022-07-10T07:45:12;18.80;99.90
4647;DHT22;2336;47.822;7.564;2022-07-10T07:47:44;19.00;99.90
4647;DHT22;2336;47.822;7.564;2022-07-10T07:50:11;18.90;99.90
4647;DHT22;2336;47.822;7.564;2022-07-10T07:52:40;19.00;99.90
4647;DHT22;2336;47.822;7.564;2022-07-10T07:55:08;19.30;99.90
4647;DHT22;2336;47.822;7.564;2022-07-10T07:57:35;19.50;99.90
4647;DHT22;2336;47.822;7.564;2022-07-10T08:00:04;19.60;99.90
4647;DHT22;2336;47.822;7.564;2022-07-10T08:02:31;19.70;99.90
4647;DHT22;2336;47.822;7.564;2022-07-10T08:04:57;19.80;99.90
4647;DHT22;2336;47.822;7.564;2022-07-10T08:07:33;19.90;99.90
4647;DHT22;2336;47.822;7.564;2022-07-10T08:10:01;19.90;99.90
4647;DHT22;2336;47.822;7.564;2022-07-10T08:12:28;19.90;99.90
4647;DHT22;2336;47.822;7.564;2022-07-10T08:14:55;19.90;99.90
4647;DHT22;2336;47.822;7.564;2022-07-10T08:17:23;20.00;99.90
4647;DHT22;2336;47.822;7.564;2022-07-10T08:19:50;20.10;99.90
4647;DHT22;2336;47.822;7.564;2022-07-10T08:22:16;20.10;99.90
4647;DHT22;2336;47.822;7.564;2022-07-10T08:24:43;20.20;99.90
4647;DHT22;2336;47.822;7.564;2022-07-10T08:27:11;20.20;99.90
4647;DHT22;2336;47.822;7.564;2022-07-10T08:29:38;20.10;99.90
4647;DHT22;2336;47.822;7.564;2022-07-10T08:32:05;20.00;99.90
4647;DHT22;2336;47.822;7.564;2022-07-10T08:34:32;20.10;99.90
4647;DHT22;2336;47.822;7.564;2022-07-10T08:36:59;20.10;99.90
4647;DHT22;2336;47.822;7.564;2022-07-10T08:39:26;20.10;99.90
4647;DHT22;2336;47.822;7.564;2022-07-10T08:41:53;20.10;99.90
4647;DHT22;2336;47.822;7.564;2022-07-10T08:44:21;20.20;99.90
4647;DHT22;2336;47.822;7.564;2022-07-10T08:46:48;20.30;99.90
4647;DHT22;2336;47.822;7.564;2022-07-10T08:49:16;20.40;99.90
4647;DHT22;2336;47.822;7.564;2022-07-10T08:51:48;20.40;99.90
4647;DHT22;2336;47.822;7.564;2022-07-10T08:54:17;20.40;99.90
4647;DHT22;2336;47.822;7.564;2022-07-10T08:56:45;20.50;99.90
4647;DHT22;2336;47.822;7.564;2022-07-10T08:59:14;20.70;99.90
4647;DHT22;2336;47.822;7.564;2022-07-10T09:01:42;20.60;99.90
4647;DHT22;2336;47.822;7.564;2022-07-10T09:04:16;20.60;99.90
4647;DHT22;2336;47.822;7.564;2022-07-10T09:06:44;20.80;99.90
4647;DHT22;2336;47.822;7.564;2022-07-10T09:09:10;20.90;99.90
4647;DHT22;2336;47.822;7.564;2022-07-10T09:11:38;20.90;99.90
4647;DHT22;2336;47.822;7.564;2022-07-10T09:14:08;20.90;99.90
4647;DHT22;2336;47.822;7.564;2022-07-10T09:16:38;21.10;99.90
4647;DHT22;2336;47.822;7.564;2022-07-10T09:19:17;21.10;99.90
4647;DHT22;2336;47.822;7.564;2022-07-10T09:21:45;21.10;99.90
4647;DHT22;2336;47.822;7.564;2022-07-10T09:24:12;21.00;99.90
4647;DHT22;2336;47.822;7.564;2022-07-10T09:26:40;21.00;99.90
4647;DHT22;2336;47.822;7.564;2022-07-10T09:29:07;20.80;99.90
4647;DHT22;2336;47.822;7.564;2022-07-10T09:31:53;20.80;99.90
4647;DHT22;2336;47.822;7.564;2022-07-10T09:34:40;21.10;99.90
4647;DHT22;2336;47.822;7.564;2022-07-10T09:37:34;21.20;99.90
4647;DHT22;2336;47.822;7.564;2022-07-10T09:40:03;21.20;99.90
4647;DHT22;2336;47.822;7.564;2022-07-10T09:42:31;21.40;99.90
4647;DHT22;2336;47.822;7.564;2022-07-10T09:45:15;21.30;99.90
4647;DHT22;2336;47.822;7.564;2022-07-10T09:47:43;21.30;99.90
4647;DHT22;2336;47.822;7.564;2022-07-10T09:50:25;21.40;99.90
4647;DHT22;2336;47.822;7.564;2022-07-10T09:52:54;21.60;99.90
4647;DHT22;2336;47.822;7.564;2022-07-10T09:55:23;21.50;99.90
4647;DHT22;2336;47.822;7.564;2022-07-10T09:57:54;21.50;99.90
4647;DHT22;2336;47.822;7.564;2022-07-10T10:00:27;21.40;99.90
4647;DHT22;2336;47.822;7.564;2022-07-10T10:02:56;21.50;99.90
4647;DHT22;2336;47.822;7.564;2022-07-10T10:05:32;21.50;99.90
4647;DHT22;2336;47.822;7.564;2022-07-10T10:08:04;21.60;99.90
4647;DHT22;2336;47.822;7.564;2022-07-10T10:10:32;21.70;99.90
4647;DHT22;2336;47.822;7.564;2022-07-10T10:13:03;21.50;99.90
4647;DHT22;2336;47.822;7.564;2022-07-10T10:15:32;21.60;99.90
4647;DHT22;2336;47.822;7.564;2022-07-10T10:18:02;21.80;99.90
4647;DHT22;2336;47.822;7.564;2022-07-10T10:20:32;21.90;99.90
4647;DHT22;2336;47.822;7.564;2022-07-10T10:23:09;21.90;99.90
4647;DHT22;2336;47.822;7.564;2022-07-10T10:25:37;22.00;99.90
4647;DHT22;2336;47.822;7.564;2022-07-10T10:28:05;22.10;99.90
4647;DHT22;2336;47.822;7.564;2022-07-10T10:30:33;22.10;99.90
4647;DHT22;2336;47.822;7.564;2022-07-10T10:33:02;22.10;99.90
4647;DHT22;2336;47.822;7.564;2022-07-10T10:35:45;22.30;99.90
4647;DHT22;2336;47.822;7.564;2022-07-10T10:38:12;22.30;99.90
4647;DHT22;2336;47.822;7.564;2022-07-10T10:40:39;22.50;99.90
4647;DHT22;2336;47.822;7.564;2022-07-10T10:43:16;22.50;99.90
4647;DHT22;2336;47.822;7.564;2022-07-10T10:45:44;22.50;99.90
4647;DHT22;2336;47.822;7.564;2022-07-10T10:48:12;22.70;99.90
4647;DHT22;2336;47.822;7.564;2022-07-10T10:50:41;22.80;99.90
4647;DHT22;2336;47.822;7.564;2022-07-10T10:53:16;22.60;99.90
4647;DHT22;2336;47.822;7.564;2022-07-10T10:58:48;22.60;99.90
4647;DHT22;2336;47.822;7.564;2022-07-10T11:01:28;22.70;99.90
4647;DHT22;2336;47.822;7.564;2022-07-10T11:04:17;22.60;99.90
4647;DHT22;2336;47.822;7.564;2022-07-10T11:06:46;22.70;99.90
4647;DHT22;2336;47.822;7.564;2022-07-10T11:09:25;22.70;99.90
4647;DHT22;2336;47.822;7.564;2022-07-10T11:12:04;22.70;99.90
4647;DHT22;2336;47.822;7.564;2022-07-10T11:14:33;22.70;99.90
4647;DHT22;2336;47.822;7.564;2022-07-10T11:17:00;22.70;99.90
4647;DHT22;2336;47.822;7.564;2022-07-10T11:19:28;22.90;99.90
4647;DHT22;2336;47.822;7.564;2022-07-10T11:24:51;23.00;99.60
4647;DHT22;2336;47.822;7.564;2022-07-10T11:27:36;22.90;99.30
4647;DHT22;2336;47.822;7.564;2022-07-10T11:30:08;23.00;99.40
4647;DHT22;2336;47.822;7.564;2022-07-10T11:32:35;23.00;98.20
4647;DHT22;2336;47.822;7.564;2022-07-10T11:35:06;23.10;98.40
4647;DHT22;2336;47.822;7.564;2022-07-10T11:37:33;23.20;99.00
4647;DHT22;2336;47.822;7.564;2022-07-10T11:40:12;23.30;99.90
4647;DHT22;2336;47.822;7.564;2022-07-10T11:42:50;23.40;97.50
4647;DHT22;2336;47.822;7.564;2022-07-10T11:45:27;23.60;97.90
4647;DHT22;2336;47.822;7.564;2022-07-10T11:47:55;23.60;97.20
4647;DHT22;2336;47.822;7.564;2022-07-10T11:50:22;23.70;94.60
4647;DHT22;2336;47.822;7.564;2022-07-10T11:52:49;23.30;93.00
4647;DHT22;2336;47.822;7.564;2022-07-10T11:55:19;23.10;94.40
4647;DHT22;2336;47.822;7.564;2022-07-10T11:57:46;23.30;94.10
4647;DHT22;2336;47.822;7.564;2022-07-10T12:00:22;23.50;94.20
4647;DHT22;2336;47.822;7.564;2022-07-10T12:02:49;23.70;94.10
4647;DHT22;2336;47.822;7.564;2022-07-10T12:05:32;23.70;93.60
4647;DHT22;2336;47.822;7.564;2022-07-10T12:07:59;23.80;93.80
4647;DHT22;2336;47.822;7.564;2022-07-10T12:10:28;23.80;92.70
4647;DHT22;2336;47.822;7.564;2022-07-10T12:13:03;23.80;91.70
4647;DHT22;2336;47.822;7.564;2022-07-10T12:15:31;23.80;89.40
4647;DHT22;2336;47.822;7.564;2022-07-10T12:17:58;24.00;86.80
4647;DHT22;2336;47.822;7.564;2022-07-10T12:20:25;23.80;85.70
4647;DHT22;2336;47.822;7.564;2022-07-10T12:22:52;23.80;86.30
4647;DHT22;2336;47.822;7.564;2022-07-10T12:25:20;23.90;85.30
4647;DHT22;2336;47.822;7.564;2022-07-10T12:27:48;23.70;79.70
4647;DHT22;2336;47.822;7.564;2022-07-10T12:30:15;23.70;85.30
4647;DHT22;2336;47.822;7.564;2022-07-10T12:32:41;24.00;85.30
4647;DHT22;2336;47.822;7.564;2022-07-10T12:35:08;24.10;81.50
4647;DHT22;2336;47.822;7.564;2022-07-10T12:37:47;24.30;86.50
4647;DHT22;2336;47.822;7.564;2022-07-10T12:40:32;24.30;91.10
4647;DHT22;2336;47.822;7.564;2022-07-10T12:43:03;24.50;90.60
4647;DHT22;2336;47.822;7.564;2022-07-10T12:45:31;24.20;88.00
4647;DHT22;2336;47.822;7.564;2022-07-10T12:47:58;24.20;88.80
4647;DHT22;2336;47.822;7.564;2022-07-10T12:50:25;24.20;89.10
4647;DHT22;2336;47.822;7.564;2022-07-10T12:53:07;24.50;88.40
4647;DHT22;2336;47.822;7.564;2022-07-10T12:55:35;24.60;88.60
4647;DHT22;2336;47.822;7.564;2022-07-10T12:58:07;24.50;88.10
4647;DHT22;2336;47.822;7.564;2022-07-10T13:00:35;24.70;88.60
4647;DHT22;2336;47.822;7.564;2022-07-10T13:03:04;24.60;90.10
4647;DHT22;2336;47.822;7.564;2022-07-10T13:05:32;24.70;88.10
4647;DHT22;2336;47.822;7.564;2022-07-10T13:08:07;24.60;86.60
4647;DHT22;2336;47.822;7.564;2022-07-10T13:10:36;24.50;89.70
4647;DHT22;2336;47.822;7.564;2022-07-10T13:13:06;24.70;90.00
4647;DHT22;2336;47.822;7.564;2022-07-10T13:15:35;24.70;90.20
4647;DHT22;2336;47.822;7.564;2022-07-10T13:18:05;24.70;90.10
4647;DHT22;2336;47.822;7.564;2022-07-10T13:20:32;24.50;90.30
4647;DHT22;2336;47.822;7.564;2022-07-10T13:22:59;24.70;90.60
4647;DHT22;2336;47.822;7.564;2022-07-10T13:25:26;24.80;90.60
4647;DHT22;2336;47.822;7.564;2022-07-10T13:27:53;24.90;86.90
4647;DHT22;2336;47.822;7.564;2022-07-10T13:30:21;24.90;87.90
4647;DHT22;2336;47.822;7.564;2022-07-10T13:32:48;25.00;90.40
4647;DHT22;2336;47.822;7.564;2022-07-10T13:35:14;25.20;90.70
4647;DHT22;2336;47.822;7.564;2022-07-10T13:37:41;25.30;88.20
4647;DHT22;2336;47.822;7.564;2022-07-10T13:40:09;24.90;88.00
4647;DHT22;2336;47.822;7.564;2022-07-10T13:42:37;25.00;87.40
4647;DHT22;2336;47.822;7.564;2022-07-10T13:45:04;25.10;86.20
4647;DHT22;2336;47.822;7.564;2022-07-10T13:47:32;25.30;86.60
4647;DHT22;2336;47.822;7.564;2022-07-10T13:49:59;25.40;88.90
4647;DHT22;2336;47.822;7.564;2022-07-10T13:52:26;25.50;88.10
4647;DHT22;2336;47.822;7.564;2022-07-10T13:54:53;25.40;86.70
4647;DHT22;2336;47.822;7.564;2022-07-10T13:57:19;25.20;87.50
4647;DHT22;2336;47.822;7.564;2022-07-10T13:59:46;25.20;88.30
4647;DHT22;2336;47.822;7.564;2022-07-10T14:02:13;25.10;87.90
4647;DHT22;2336;47.822;7.564;2022-07-10T14:04:42;25.10;88.00
4647;DHT22;2336;47.822;7.564;2022-07-10T14:07:09;24.90;86.70
4647;DHT22;2336;47.822;7.564;2022-07-10T14:09:35;24.90;88.20
4647;DHT22;2336;47.822;7.564;2022-07-10T14:12:03;25.00;86.60
4647;DHT22;2336;47.822;7.564;2022-07-10T14:14:29;24.80;86.50
4647;DHT22;2336;47.822;7.564;2022-07-10T14:16:56;24.80;88.00
4647;DHT22;2336;47.822;7.564;2022-07-10T14:19:23;25.10;86.30
4647;DHT22;2336;47.822;7.564;2022-07-10T14:21:51;25.00;86.40
4647;DHT22;2336;47.822;7.564;2022-07-10T14:24:18;25.10;85.20
4647;DHT22;2336;47.822;7.564;2022-07-10T14:26:45;24.80;84.30
4647;DHT22;2336;47.822;7.564;2022-07-10T14:29:12;24.80;85.40
4647;DHT22;2336;47.822;7.564;2022-07-10T14:31:39;24.90;84.40
4647;DHT22;2336;47.822;7.564;2022-07-10T14:34:06;24.90;85.10
4647;DHT22;2336;47.822;7.564;2022-07-10T14:36:33;24.90;86.20
4647;DHT22;2336;47.822;7.564;2022-07-10T14:39:01;25.00;85.40
4647;DHT22;2336;47.822;7.564;2022-07-10T14:41:28;24.80;84.50
4647;DHT22;2336;47.822;7.564;2022-07-10T14:43:54;24.70;87.10
4647;DHT22;2336;47.822;7.564;2022-07-10T14:46:21;24.90;84.80
4647;DHT22;2336;47.822;7.564;2022-07-10T14:48:49;25.00;83.90
4647;DHT22;2336;47.822;7.564;2022-07-10T14:51:16;24.90;82.70
4647;DHT22;2336;47.822;7.564;2022-07-10T14:53:43;24.90;83.30
4647;DHT22;2336;47.822;7.564;2022-07-10T14:56:13;25.00;82.90
4647;DHT22;2336;47.822;7.564;2022-07-10T14:58:41;25.00;83.00
4647;DHT22;2336;47.822;7.564;2022-07-10T15:01:08;25.00;82.10
4647;DHT22;2336;47.822;7.564;2022-07-10T15:03:35;25.00;82.20
4647;DHT22;2336;47.822;7.564;2022-07-10T15:06:02;24.90;80.60
4647;DHT22;2336;47.822;7.564;2022-07-10T15:08:29;24.80;80.00
4647;DHT22;2336;47.822;7.564;2022-07-10T15:10:56;25.00;80.00
4647;DHT22;2336;47.822;7.564;2022-07-10T15:13:26;25.00;79.60
4647;DHT22;2336;47.822;7.564;2022-07-10T15:15:53;25.00;79.90
4647;DHT22;2336;47.822;7.564;2022-07-10T15:18:20;25.00;80.50
4647;DHT22;2336;47.822;7.564;2022-07-10T15:20:47;25.00;79.50
4647;DHT22;2336;47.822;7.564;2022-07-10T15:23:14;24.90;79.40
4647;DHT22;2336;47.822;7.564;2022-07-10T15:25:41;24.90;78.70
4647;DHT22;2336;47.822;7.564;2022-07-10T15:28:08;25.00;79.10
4647;DHT22;2336;47.822;7.564;2022-07-10T15:30:37;24.70;78.50
4647;DHT22;2336;47.822;7.564;2022-07-10T15:33:05;24.70;77.70
4647;DHT22;2336;47.822;7.564;2022-07-10T15:35:32;24.70;78.20
4647;DHT22;2336;47.822;7.564;2022-07-10T15:37:59;24.70;77.80
4647;DHT22;2336;47.822;7.564;2022-07-10T15:40:26;24.70;76.40
4647;DHT22;2336;47.822;7.564;2022-07-10T15:42:53;24.70;75.60
4647;DHT22;2336;47.822;7.564;2022-07-10T15:45:22;24.80;76.50
4647;DHT22;2336;47.822;7.564;2022-07-10T15:47:50;24.70;75.90
4647;DHT22;2336;47.822;7.564;2022-07-10T15:50:17;24.70;74.80
4647;DHT22;2336;47.822;7.564;2022-07-10T15:52:44;24.70;75.70
4647;DHT22;2336;47.822;7.564;2022-07-10T15:55:11;24.80;74.30
4647;DHT22;2336;47.822;7.564;2022-07-10T15:57:38;24.70;74.70
4647;DHT22;2336;47.822;7.564;2022-07-10T16:00:05;24.60;74.10
4647;DHT22;2336;47.822;7.564;2022-07-10T16:02:33;24.50;74.50
4647;DHT22;2336;47.822;7.564;2022-07-10T16:05:02;24.50;74.90
4647;DHT22;2336;47.822;7.564;2022-07-10T16:07:29;24.60;75.60
4647;DHT22;2336;47.822;7.564;2022-07-10T16:09:55;24.50;74.80
4647;DHT22;2336;47.822;7.564;2022-07-10T16:12:23;24.50;73.80
4647;DHT22;2336;47.822;7.564;2022-07-10T16:14:49;24.40;72.80